sensor_id;sensor_type;location;lat;lon;timestamp;pressure;altitude;pressure_sealevel;temperature;humidity
49813;BME280;35706;52.100;5.056;2023-05-11T00:00:30;101407.19;;;13.04;100.00
49813;BME280;35706;52.100;5.056;2023-05-11T00:01:32;101403.69;;;13.03;100.00
49813;BME280;35706;52.100;5.056;2023-05-11T00:02:32;101402.06;;;13.02;100.00
49813;BME280;35706;52.100;5.056;2023-05-11T00:03:34;101395.50;;;12.97;100.00
49813;BME280;35706;52.100;5.056;2023-05-11T00:04:34;101397.44;;;12.95;100.00
49813;BME280;35706;52.100;5.056;2023-05-11T00:05:34;101399.97;;;12.96;100.00
49813;BME280;35706;52.100;5.056;2023-05-11T00:06:35;101399.84;;;12.98;100.00
49813;BME280;35706;52.100;5.056;2023-05-11T00:07:35;101395.66;;;12.95;100.00
49813;BME280;35706;52.100;5.056;2023-05-11T00:08:36;101393.84;;;12.96;100.00
49813;BME280;35706;52.100;5.056;2023-05-11T00:09:36;101400.78;;;12.97;100.00
49813;BME280;35706;52.100;5.056;2023-05-11T00:10:37;101399.66;;;12.99;100.00
49813;BME280;35706;52.100;5.056;2023-05-11T00:11:38;101390.09;;;12.98;100.00
49813;BME280;35706;52.100;5.056;2023-05-11T00:12:38;101393.16;;;12.94;100.00
49813;BME280;35706;52.100;5.056;2023-05-11T00:13:38;101389.13;;;12.99;100.00
49813;BME280;35706;52.100;5.056;2023-05-11T00:14:39;101385.53;;;13.00;100.00
49813;BME280;35706;52.100;5.056;2023-05-11T00:15:39;101380.94;;;13.02;100.00
49813;BME280;35706;52.100;5.056;2023-05-11T00:16:40;101379.81;;;13.05;100.00
49813;BME280;35706;52.100;5.056;2023-05-11T00:17:40;101383.28;;;13.06;100.00
49813;BME280;35706;52.100;5.056;2023-05-11T00:18:40;101381.78;;;13.13;100.00
49813;BME280;35706;52.100;5.056;2023-05-11T00:19:41;101380.78;;;13.14;100.00
49813;BME280;35706;52.100;5.056;2023-05-11T00:20:41;101378.31;;;13.12;100.00
49813;BME280;35706;52.100;5.056;2023-05-11T00:21:41;101381.06;;;13.20;100.00
49813;BME280;35706;52.100;5.056;2023-05-11T00:22:42;101380.34;;;13.18;100.00
49813;BME280;35706;52.100;5.056;2023-05-11T00:23:42;101376.47;;;13.22;100.00
49813;BME280;35706;52.100;5.056;2023-05-11T00:24:43;101380.22;;;13.20;100.00
49813;BME280;35706;52.100;5.056;2023-05-11T00:25:43;101380.09;;;13.21;100.00
49813;BME280;35706;52.100;5.056;2023-05-11T00:26:43;101374.25;;;13.18;100.00
49813;BME280;35706;52.100;5.056;2023-05-11T00:27:44;101375.94;;;13.19;100.00
49813;BME280;35706;52.100;5.056;2023-05-11T00:28:45;101384.81;;;13.18;100.00
49813;BME280;35706;52.100;5.056;2023-05-11T00:29:45;101384.56;;;13.21;100.00
49813;BME280;35706;52.100;5.056;2023-05-11T00:30:45;101385.09;;;13.24;100.00
49813;BME280;35706;52.100;5.056;2023-05-11T00:31:46;101379.81;;;13.24;100.00
49813;BME280;35706;52.100;5.056;2023-05-11T00:32:47;101388.19;;;13.30;100.00
49813;BME280;35706;52.100;5.056;2023-05-11T00:33:50;101379.53;;;13.28;100.00
49813;BME280;35706;52.100;5.056;2023-05-11T00:34:50;101385.09;;;13.24;100.00
49813;BME280;35706;52.100;5.056;2023-05-11T00:35:51;101387.03;;;13.22;100.00
49813;BME280;35706;52.100;5.056;2023-05-11T00:36:51;101391.34;;;13.14;100.00
49813;BME280;35706;52.100;5.056;2023-05-11T00:37:51;101393.16;;;13.13;100.00
49813;BME280;35706;52.100;5.056;2023-05-11T00:38:52;101389.69;;;13.13;100.00
49813;BME280;35706;52.100;5.056;2023-05-11T00:39:52;101393.84;;;13.15;100.00
49813;BME280;35706;52.100;5.056;2023-05-11T00:40:53;101387.19;;;13.11;100.00
49813;BME280;35706;52.100;5.056;2023-05-11T00:41:53;101392.34;;;13.13;100.00
49813;BME280;35706;52.100;5.056;2023-05-11T00:42:53;101391.06;;;13.07;100.00
49813;BME280;35706;52.100;5.056;2023-05-11T00:43:53;101391.78;;;13.09;100.00
49813;BME280;35706;52.100;5.056;2023-05-11T00:44:54;101390.94;;;12.99;100.00
49813;BME280;35706;52.100;5.056;2023-05-11T00:45:54;101395.94;;;13.02;100.00
49813;BME280;35706;52.100;5.056;2023-05-11T00:46:54;101391.91;;;12.78;100.00
49813;BME280;35706;52.100;5.056;2023-05-11T00:47:56;101391.47;;;12.93;100.00
49813;BME280;35706;52.100;5.056;2023-05-11T00:48:57;101391.34;;;12.94;100.00
49813;BME280;35706;52.100;5.056;2023-05-11T00:49:58;101397.72;;;12.82;100.00
49813;BME280;35706;52.100;5.056;2023-05-11T00:50:59;101387.75;;;12.95;100.00
49813;BME280;35706;52.100;5.056;2023-05-11T00:52:00;101391.75;;;12.99;100.00
49813;BME280;35706;52.100;5.056;2023-05-11T00:53:02;101385.66;;;12.89;100.00
49813;BME280;35706;52.100;5.056;2023-05-11T00:54:02;101384.69;;;13.00;100.00
49813;BME280;35706;52.100;5.056;2023-05-11T00:55:03;101382.31;;;13.07;100.00
49813;BME280;35706;52.100;5.056;2023-05-11T00:56:03;101388.00;;;13.12;100.00
49813;BME280;35706;52.100;5.056;2023-05-11T00:57:04;101392.16;;;13.14;100.00
49813;BME280;35706;52.100;5.056;2023-05-11T00:58:04;101382.47;;;13.15;100.00
49813;BME280;35706;52.100;5.056;2023-05-11T00:59:05;101382.59;;;13.23;100.00
49813;BME280;35706;52.100;5.056;2023-05-11T01:00:05;101379.97;;;13.23;100.00
49813;BME280;35706;52.100;5.056;2023-05-11T01:01:06;101388.16;;;13.20;100.00
49813;BME280;35706;52.100;5.056;2023-05-11T01:02:07;101393.16;;;12.94;100.00
49813;BME280;35706;52.100;5.056;2023-05-11T01:03:07;101389.25;;;12.88;100.00
49813;BME280;35706;52.100;5.056;2023-05-11T01:04:08;101382.88;;;12.91;100.00
49813;BME280;35706;52.100;5.056;2023-05-11T01:05:09;101385.38;;;12.92;100.00
49813;BME280;35706;52.100;5.056;2023-05-11T01:06:30;101375.50;;;12.94;100.00
49813;BME280;35706;52.100;5.056;2023-05-11T01:09:08;101383.84;;;12.99;100.00
49813;BME280;35706;52.100;5.056;2023-05-11T01:11:41;101373.84;;;13.03;100.00
49813;BME280;35706;52.100;5.056;2023-05-11T01:14:14;101377.31;;;12.94;100.00
49813;BME280;35706;52.100;5.056;2023-05-11T01:15:36;101381.91;;;12.92;100.00
49813;BME280;35706;52.100;5.056;2023-05-11T01:16:43;101383.16;;;13.07;100.00
49813;BME280;35706;52.100;5.056;2023-05-11T01:18:03;101389.25;;;13.08;100.00
49813;BME280;35706;52.100;5.056;2023-05-11T01:19:17;101383.44;;;13.04;100.00
49813;BME280;35706;52.100;5.056;2023-05-11T01:20:22;101386.22;;;13.02;100.00
49813;BME280;35706;52.100;5.056;2023-05-11T01:21:26;101391.75;;;12.99;100.00
49813;BME280;35706;52.100;5.056;2023-05-11T01:25:42;101394.22;;;12.72;100.00
49813;BME280;35706;52.100;5.056;2023-05-11T01:27:20;101388.81;;;12.73;100.00
49813;BME280;35706;52.100;5.056;2023-05-11T01:28:34;101398.69;;;12.81;100.00
49813;BME280;35706;52.100;5.056;2023-05-11T01:31:12;101392.13;;;12.66;100.00
49813;BME280;35706;52.100;5.056;2023-05-11T01:32:17;101394.38;;;12.70;100.00
49813;BME280;35706;52.100;5.056;2023-05-11T01:33:24;101392.28;;;12.74;100.00
49813;BME280;35706;52.100;5.056;2023-05-11T01:34:29;101393.69;;;12.78;100.00
49813;BME280;35706;52.100;5.056;2023-05-11T01:35:32;101396.06;;;12.81;100.00
49813;BME280;35706;52.100;5.056;2023-05-11T01:36:37;101393.84;;;12.86;100.00
49813;BME280;35706;52.100;5.056;2023-05-11T01:37:40;101392.03;;;12.96;100.00
49813;BME280;35706;52.100;5.056;2023-05-11T01:38:46;101400.66;;;12.98;100.00
49813;BME280;35706;52.100;5.056;2023-05-11T01:39:57;101387.16;;;13.01;100.00
49813;BME280;35706;52.100;5.056;2023-05-11T01:40:59;101388.97;;;13.01;100.00
49813;BME280;35706;52.100;5.056;2023-05-11T01:42:08;101386.91;;;13.04;100.00
49813;BME280;35706;52.100;5.056;2023-05-11T01:43:16;101394.00;;;13.04;100.00
49813;BME280;35706;52.100;5.056;2023-05-11T01:44:21;101392.06;;;13.06;100.00
49813;BME280;35706;52.100;5.056;2023-05-11T01:45:25;101386.22;;;13.02;100.00
49813;BME280;35706;52.100;5.056;2023-05-11T01:46:29;101389.56;;;13.04;100.00
49813;BME280;35706;52.100;5.056;2023-05-11T01:47:30;101388.16;;;13.00;100.00
49813;BME280;35706;52.100;5.056;2023-05-11T01:48:34;101390.78;;;13.00;100.00
49813;BME280;35706;52.100;5.056;2023-05-11T01:49:39;101395.34;;;12.89;100.00
49813;BME280;35706;52.100;5.056;2023-05-11T01:50:41;101396.91;;;12.91;100.00
49813;BME280;35706;52.100;5.056;2023-05-11T01:51:43;101392.16;;;12.95;100.00
49813;BME280;35706;52.100;5.056;2023-05-11T01:52:46;101391.19;;;12.86;100.00
49813;BME280;35706;52.100;5.056;2023-05-11T01:53:47;101390.50;;;12.74;100.00
49813;BME280;35706;52.100;5.056;2023-05-11T01:54:48;101393.97;;;12.75;100.00
49813;BME280;35706;52.100;5.056;2023-05-11T01:55:52;101385.94;;;12.76;100.00
49813;BME280;35706;52.100;5.056;2023-05-11T01:56:56;101393.69;;;12.78;100.00
49813;BME280;35706;52.100;5.056;2023-05-11T01:57:57;101394.25;;;12.81;100.00
49813;BME280;35706;52.100;5.056;2023-05-11T01:58:58;101394.53;;;12.88;100.00
49813;BME280;35706;52.100;5.056;2023-05-11T01:59:59;101400.53;;;13.00;100.00
49813;BME280;35706;52.100;5.056;2023-05-11T02:01:01;101397.72;;;13.01;100.00
49813;BME280;35706;52.100;5.056;2023-05-11T02:02:03;101395.38;;;12.98;100.00
49813;BME280;35706;52.100;5.056;2023-05-11T02:03:05;101399.66;;;12.99;100.00
49813;BME280;35706;52.100;5.056;2023-05-11T02:04:08;101394.28;;;12.91;100.00
49813;BME280;35706;52.100;5.056;2023-05-11T02:05:09;101399.38;;;12.93;100.00
49813;BME280;35706;52.100;5.056;2023-05-11T02:06:12;101395.66;;;12.95;100.00
49813;BME280;35706;52.100;5.056;2023-05-11T02:07:15;101396.63;;;12.94;100.00
49813;BME280;35706;52.100;5.056;2023-05-11T02:08:18;101399.41;;;12.83;100.00
49813;BME280;35706;52.100;5.056;2023-05-11T02:09:20;101396.34;;;12.88;100.00
49813;BME280;35706;52.100;5.056;2023-05-11T02:10:24;101399.56;;;12.91;100.00
49813;BME280;35706;52.100;5.056;2023-05-11T02:11:26;101398.56;;;12.92;100.00
49813;BME280;35706;52.100;5.056;2023-05-11T02:12:28;101389.28;;;12.98;100.00
49813;BME280;35706;52.100;5.056;2023-05-11T02:13:31;101392.75;;;12.98;100.00
49813;BME280;35706;52.100;5.056;2023-05-11T02:14:34;101399.56;;;12.91;100.00
49813;BME280;35706;52.100;5.056;2023-05-11T02:15:40;101392.72;;;12.79;100.00
49813;BME280;35706;52.100;5.056;2023-05-11T02:16:42;101396.31;;;12.78;100.00
49813;BME280;35706;52.100;5.056;2023-05-11T02:17:47;101395.34;;;12.69;100.00
49813;BME280;35706;52.100;5.056;2023-05-11T02:18:48;101396.88;;;12.72;100.00
49813;BME280;35706;52.100;5.056;2023-05-11T02:19:50;101403.97;;;12.61;100.00
49813;BME280;35706;52.100;5.056;2023-05-11T02:20:52;101407.13;;;12.65;100.00
49813;BME280;35706;52.100;5.056;2023-05-11T02:21:53;101408.25;;;12.62;100.00
49813;BME280;35706;52.100;5.056;2023-05-11T02:22:54;101407.13;;;12.55;100.00
49813;BME280;35706;52.100;5.056;2023-05-11T02:23:56;101406.56;;;12.52;100.00
49813;BME280;35706;52.100;5.056;2023-05-11T02:24:57;101408.03;;;12.35;100.00
49813;BME280;35706;52.100;5.056;2023-05-11T02:25:58;101408.06;;;12.45;100.00
49813;BME280;35706;52.100;5.056;2023-05-11T02:26:58;101415.28;;;12.42;100.00
49813;BME280;35706;52.100;5.056;2023-05-11T02:27:59;101410.91;;;12.32;100.00
49813;BME280;35706;52.100;5.056;2023-05-11T02:29:00;101410.78;;;12.24;100.00
49813;BME280;35706;52.100;5.056;2023-05-11T02:30:05;101414.38;;;12.22;100.00
49813;BME280;35706;52.100;5.056;2023-05-11T02:31:09;101412.97;;;12.18;100.00
49813;BME280;35706;52.100;5.056;2023-05-11T02:32:16;101407.97;;;12.15;100.00
49813;BME280;35706;52.100;5.056;2023-05-11T02:33:34;101414.25;;;12.34;100.00
49813;BME280;35706;52.100;5.056;2023-05-11T02:34:42;101413.56;;;12.32;100.00
49813;BME280;35706;52.100;5.056;2023-05-11T02:35:45;101412.19;;;12.37;100.00
49813;BME280;35706;52.100;5.056;2023-05-11T02:36:51;101418.41;;;12.27;100.00
49813;BME280;35706;52.100;5.056;2023-05-11T02:37:55;101416.28;;;12.20;100.00
49813;BME280;35706;52.100;5.056;2023-05-11T02:39:01;101411.59;;;12.24;100.00
49813;BME280;35706;52.100;5.056;2023-05-11T02:40:09;101411.50;;;12.35;100.00
49813;BME280;35706;52.100;5.056;2023-05-11T02:41:16;101404.16;;;12.39;100.00
49813;BME280;35706;52.100;5.056;2023-05-11T02:42:20;101408.31;;;12.41;100.00
49813;BME280;35706;52.100;5.056;2023-05-11T02:43:24;101403.88;;;12.42;100.00
49813;BME280;35706;52.100;5.056;2023-05-11T02:44:30;101405.69;;;12.41;100.00
49813;BME280;35706;52.100;5.056;2023-05-11T02:45:33;101402.34;;;12.39;100.00
49813;BME280;35706;52.100;5.056;2023-05-11T02:46:35;101402.34;;;12.39;100.00
49813;BME280;35706;52.100;5.056;2023-05-11T02:47:44;101404.47;;;12.46;100.00
49813;BME280;35706;52.100;5.056;2023-05-11T02:48:50;101406.78;;;12.39;100.00
49813;BME280;35706;52.100;5.056;2023-05-11T02:49:54;101411.41;;;12.56;100.00
49813;BME280;35706;52.100;5.056;2023-05-11T02:50:57;101408.66;;;12.68;100.00
49813;BME280;35706;52.100;5.056;2023-05-11T02:52:00;101414.09;;;12.66;100.00
49813;BME280;35706;52.100;5.056;2023-05-11T02:53:05;101416.88;;;12.74;100.00
49813;BME280;35706;52.100;5.056;2023-05-11T02:54:07;101413.22;;;12.66;100.00
49813;BME280;35706;52.100;5.056;2023-05-11T02:55:10;101413.13;;;12.77;100.00
49813;BME280;35706;52.100;5.056;2023-05-11T02:56:12;101413.00;;;12.78;100.00
49813;BME280;35706;52.100;5.056;2023-05-11T02:57:13;101413.38;;;12.74;100.00
49813;BME280;35706;52.100;5.056;2023-05-11T02:58:13;101412.78;;;12.51;100.00
49813;BME280;35706;52.100;5.056;2023-05-11T02:59:14;101412.19;;;12.37;100.00
49813;BME280;35706;52.100;5.056;2023-05-11T03:00:15;101410.91;;;12.32;100.00
49813;BME280;35706;52.100;5.056;2023-05-11T03:01:16;101409.13;;;12.32;100.00
49813;BME280;35706;52.100;5.056;2023-05-11T03:02:17;101410.78;;;12.33;100.00
49813;BME280;35706;52.100;5.056;2023-05-11T03:03:17;101407.06;;;12.36;100.00
49813;BME280;35706;52.100;5.056;2023-05-11T03:04:17;101409.09;;;12.22;100.00
49813;BME280;35706;52.100;5.056;2023-05-11T03:05:18;101413.72;;;12.30;100.00
49813;BME280;35706;52.100;5.056;2023-05-11T03:06:18;101413.72;;;12.30;100.00
49813;BME280;35706;52.100;5.056;2023-05-11T03:07:19;101415.66;;;12.38;100.00
49813;BME280;35706;52.100;5.056;2023-05-11T03:08:20;101418.75;;;12.53;100.00
49813;BME280;35706;52.100;5.056;2023-05-11T03:09:20;101418.22;;;12.59;100.00
49813;BME280;35706;52.100;5.056;2023-05-11T03:10:21;101416.28;;;12.61;100.00
49813;BME280;35706;52.100;5.056;2023-05-11T03:11:24;101410.59;;;12.66;100.00
49813;BME280;35706;52.100;5.056;2023-05-11T03:12:24;101418.25;;;12.69;100.00
49813;BME280;35706;52.100;5.056;2023-05-11T03:13:31;101412.41;;;12.65;100.00
49813;BME280;35706;52.100;5.056;2023-05-11T03:14:32;101409.78;;;12.65;100.00
49813;BME280;35706;52.100;5.056;2023-05-11T03:15:35;101405.47;;;12.64;100.00
49813;BME280;35706;52.100;5.056;2023-05-11T03:16:37;101411.00;;;12.61;100.00
49813;BME280;35706;52.100;5.056;2023-05-11T03:17:39;101407.97;;;12.56;100.00
49813;BME280;35706;52.100;5.056;2023-05-11T03:18:41;101409.47;;;12.58;100.00
49813;BME280;35706;52.100;5.056;2023-05-11T03:19:42;101410.31;;;12.49;100.00
49813;BME280;35706;52.100;5.056;2023-05-11T03:20:44;101412.66;;;12.52;100.00
49813;BME280;35706;52.100;5.056;2023-05-11T03:21:45;101408.53;;;12.59;100.00
49813;BME280;35706;52.100;5.056;2023-05-11T03:22:47;101411.28;;;12.68;100.00
49813;BME280;35706;52.100;5.056;2023-05-11T03:23:48;101412.00;;;12.60;100.00
49813;BME280;35706;52.100;5.056;2023-05-11T03:24:50;101414.59;;;12.50;100.00
49813;BME280;35706;52.100;5.056;2023-05-11T03:25:51;101416.81;;;12.55;100.00
49813;BME280;35706;52.100;5.056;2023-05-11T03:26:53;101416.69;;;12.56;100.00
49813;BME280;35706;52.100;5.056;2023-05-11T03:27:56;101413.94;;;12.58;100.00
49813;BME280;35706;52.100;5.056;2023-05-11T03:28:58;101407.84;;;12.57;100.00
49813;BME280;35706;52.100;5.056;2023-05-11T03:30:02;101412.81;;;12.60;100.00
49813;BME280;35706;52.100;5.056;2023-05-11T03:31:02;101406.44;;;12.53;100.00
49813;BME280;35706;52.100;5.056;2023-05-11T03:32:03;101410.84;;;12.53;100.00
49813;BME280;35706;52.100;5.056;2023-05-11T03:33:03;101406.13;;;12.47;100.00
49813;BME280;35706;52.100;5.056;2023-05-11T03:34:04;101402.09;;;12.42;100.00
49813;BME280;35706;52.100;5.056;2023-05-11T03:35:05;101404.03;;;12.40;100.00
49813;BME280;35706;52.100;5.056;2023-05-11T03:36:08;101395.84;;;12.43;100.00
49813;BME280;35706;52.100;5.056;2023-05-11T03:37:11;101395.44;;;12.48;100.00
49813;BME280;35706;52.100;5.056;2023-05-11T03:38:14;101401.13;;;12.43;100.00
49813;BME280;35706;52.100;5.056;2023-05-11T03:39:16;101393.63;;;12.39;100.00
49813;BME280;35706;52.100;5.056;2023-05-11T03:40:18;101396.66;;;12.44;100.00
49813;BME280;35706;52.100;5.056;2023-05-11T03:41:19;101392.38;;;12.43;100.00
49813;BME280;35706;52.100;5.056;2023-05-11T03:42:21;101395.03;;;12.43;100.00
49813;BME280;35706;52.100;5.056;2023-05-11T03:43:23;101393.31;;;12.32;100.00
49813;BME280;35706;52.100;5.056;2023-05-11T03:44:26;101396.66;;;12.34;100.00
49813;BME280;35706;52.100;5.056;2023-05-11T03:45:28;101393.88;;;12.36;100.00
49813;BME280;35706;52.100;5.056;2023-05-11T03:46:31;101391.22;;;12.26;100.00
49813;BME280;35706;52.100;5.056;2023-05-11T03:47:35;101382.63;;;12.34;100.00
49813;BME280;35706;52.100;5.056;2023-05-11T03:48:38;101383.06;;;12.39;100.00
49813;BME280;35706;52.100;5.056;2023-05-11T03:49:40;101380.31;;;12.40;100.00
49813;BME280;35706;52.100;5.056;2023-05-11T03:50:42;101386.97;;;12.45;100.00
49813;BME280;35706;52.100;5.056;2023-05-11T03:51:43;101383.06;;;12.39;100.00
49813;BME280;35706;52.100;5.056;2023-05-11T03:52:44;101387.19;;;12.32;100.00
49813;BME280;35706;52.100;5.056;2023-05-11T03:53:44;101381.66;;;12.35;100.00
49813;BME280;35706;52.100;5.056;2023-05-11T03:54:45;101380.44;;;12.39;100.00
49813;BME280;35706;52.100;5.056;2023-05-11T03:55:46;101379.19;;;12.43;100.00
49813;BME280;35706;52.100;5.056;2023-05-11T03:56:46;101371.53;;;12.40;100.00
49813;BME280;35706;52.100;5.056;2023-05-11T03:57:47;101375.88;;;12.41;100.00
49813;BME280;35706;52.100;5.056;2023-05-11T03:58:48;101383.66;;;12.42;100.00
49813;BME280;35706;52.100;5.056;2023-05-11T03:59:48;101383.66;;;12.42;100.00
49813;BME280;35706;52.100;5.056;2023-05-11T04:00:49;101381.97;;;12.41;100.00
49813;BME280;35706;52.100;5.056;2023-05-11T04:01:50;101377.50;;;12.42;100.00
49813;BME280;35706;52.100;5.056;2023-05-11T04:02:53;101384.47;;;12.43;100.00
49813;BME280;35706;52.100;5.056;2023-05-11T04:03:53;101386.13;;;12.44;100.00
49813;BME280;35706;52.100;5.056;2023-05-11T04:04:54;101383.66;;;12.42;100.00
49813;BME280;35706;52.100;5.056;2023-05-11T04:05:54;101380.31;;;12.40;100.00
49813;BME280;35706;52.100;5.056;2023-05-11T04:06:55;101378.63;;;12.39;100.00
49813;BME280;35706;52.100;5.056;2023-05-11T04:07:56;101383.66;;;12.42;100.00
49813;BME280;35706;52.100;5.056;2023-05-11T04:08:56;101374.06;;;12.41;100.00
49813;BME280;35706;52.100;5.056;2023-05-11T04:09:56;101382.66;;;12.43;100.00
49813;BME280;35706;52.100;5.056;2023-05-11T04:10:57;101377.94;;;12.37;100.00
49813;BME280;35706;52.100;5.056;2023-05-11T04:11:57;101375.16;;;12.39;100.00
49813;BME280;35706;52.100;5.056;2023-05-11T04:13:00;101376.81;;;12.40;100.00
49813;BME280;35706;52.100;5.056;2023-05-11T04:14:01;101374.19;;;12.40;100.00
49813;BME280;35706;52.100;5.056;2023-05-11T04:15:01;101375.16;;;12.39;100.00
49813;BME280;35706;52.100;5.056;2023-05-11T04:16:02;101382.50;;;12.35;100.00
49813;BME280;35706;52.100;5.056;2023-05-11T04:17:02;101386.94;;;12.35;100.00
49813;BME280;35706;52.100;5.056;2023-05-11T04:18:03;101383.06;;;12.39;100.00
49813;BME280;35706;52.100;5.056;2023-05-11T04:19:03;101384.88;;;12.38;100.00
49813;BME280;35706;52.100;5.056;2023-05-11T04:20:04;101388.22;;;12.40;100.00
49813;BME280;35706;52.100;5.056;2023-05-11T04:21:04;101390.56;;;12.43;100.00
49813;BME280;35706;52.100;5.056;2023-05-11T04:22:05;101391.00;;;12.49;100.00
49813;BME280;35706;52.100;5.056;2023-05-11T04:23:05;101398.91;;;12.49;100.00
49813;BME280;35706;52.100;5.056;2023-05-11T04:24:06;101395.59;;;12.56;100.00
49813;BME280;35706;52.100;5.056;2023-05-11T04:25:06;101399.91;;;12.57;100.00
49813;BME280;35706;52.100;5.056;2023-05-11T04:26:07;101395.31;;;12.50;100.00
49813;BME280;35706;52.100;5.056;2023-05-11T04:27:07;101401.53;;;12.49;100.00
49813;BME280;35706;52.100;5.056;2023-05-11T04:28:07;101398.06;;;12.48;100.00
49813;BME280;35706;52.100;5.056;2023-05-11T04:29:08;101404.34;;;12.57;100.00
49813;BME280;35706;52.100;5.056;2023-05-11T04:30:08;101401.56;;;12.58;100.00
49813;BME280;35706;52.100;5.056;2023-05-11T04:31:09;101400.63;;;12.59;100.00
49813;BME280;35706;52.100;5.056;2023-05-11T04:32:09;101400.63;;;12.59;100.00
49813;BME280;35706;52.100;5.056;2023-05-11T04:33:09;101403.66;;;12.65;100.00
49813;BME280;35706;52.100;5.056;2023-05-11T04:34:11;101410.59;;;12.66;100.00
49813;BME280;35706;52.100;5.056;2023-05-11T04:35:11;101409.34;;;12.60;100.00
49813;BME280;35706;52.100;5.056;2023-05-11T04:36:12;101404.75;;;12.52;100.00
49813;BME280;35706;52.100;5.056;2023-05-11T04:37:12;101409.97;;;12.33;100.00
49813;BME280;35706;52.100;5.056;2023-05-11T04:38:12;101405.41;;;12.35;100.00
49813;BME280;35706;52.100;5.056;2023-05-11T04:39:13;101403.47;;;12.37;100.00
49813;BME280;35706;52.100;5.056;2023-05-11T04:40:13;101408.03;;;12.35;100.00
49813;BME280;35706;52.100;5.056;2023-05-11T04:41:14;101405.53;;;12.33;100.00
49813;BME280;35706;52.100;5.056;2023-05-11T04:42:14;101412.59;;;12.33;100.00
49813;BME280;35706;52.100;5.056;2023-05-11T04:43:15;101408.16;;;12.24;100.00
49813;BME280;35706;52.100;5.056;2023-05-11T04:44:15;101406.75;;;12.19;100.00
49813;BME280;35706;52.100;5.056;2023-05-11T04:45:16;101413.66;;;12.20;100.00
49813;BME280;35706;52.100;5.056;2023-05-11T04:46:16;101408.38;;;12.20;100.00
49813;BME280;35706;52.100;5.056;2023-05-11T04:47:16;101413.09;;;12.17;100.00
49813;BME280;35706;52.100;5.056;2023-05-11T04:48:17;101417.34;;;12.08;100.00
49813;BME280;35706;52.100;5.056;2023-05-11T04:49:17;101409.63;;;12.16;100.00
49813;BME280;35706;52.100;5.056;2023-05-11T04:50:17;101403.00;;;12.22;100.00
49813;BME280;35706;52.100;5.056;2023-05-11T04:51:18;101407.34;;;12.33;100.00
49813;BME280;35706;52.100;5.056;2023-05-11T04:52:18;101418.03;;;12.41;100.00
49813;BME280;35706;52.100;5.056;2023-05-11T04:53:18;101416.66;;;12.37;100.00
49813;BME280;35706;52.100;5.056;2023-05-11T04:54:18;101406.78;;;12.39;100.00
49813;BME280;35706;52.100;5.056;2023-05-11T04:55:19;101411.53;;;12.45;100.00
49813;BME280;35706;52.100;5.056;2023-05-11T04:56:20;101409.31;;;12.40;100.00
49813;BME280;35706;52.100;5.056;2023-05-11T04:57:20;101412.66;;;12.42;100.00
49813;BME280;35706;52.100;5.056;2023-05-11T04:58:21;101417.69;;;12.55;100.00
49813;BME280;35706;52.100;5.056;2023-05-11T04:59:21;101414.34;;;12.53;100.00
49813;BME280;35706;52.100;5.056;2023-05-11T05:00:22;101422.53;;;12.60;100.00
49813;BME280;35706;52.100;5.056;2023-05-11T05:01:22;101423.66;;;12.57;100.00
49813;BME280;35706;52.100;5.056;2023-05-11T05:02:22;101421.00;;;12.57;100.00
49813;BME280;35706;52.100;5.056;2023-05-11T05:03:22;101423.91;;;12.54;100.00
49813;BME280;35706;52.100;5.056;2023-05-11T05:04:23;101424.88;;;12.53;100.00
49813;BME280;35706;52.100;5.056;2023-05-11T05:05:23;101426.94;;;12.50;100.00
49813;BME280;35706;52.100;5.056;2023-05-11T05:06:23;101421.38;;;12.53;100.00
49813;BME280;35706;52.100;5.056;2023-05-11T05:07:24;101421.81;;;12.48;100.00
49813;BME280;35706;52.100;5.056;2023-05-11T05:08:24;101421.81;;;12.48;100.00
49813;BME280;35706;52.100;5.056;2023-05-11T05:09:24;101419.63;;;12.53;100.00
49813;BME280;35706;52.100;5.056;2023-05-11T05:10:24;101430.69;;;12.57;100.00
49813;BME280;35706;52.100;5.056;2023-05-11T05:11:25;101429.59;;;12.50;100.00
49813;BME280;35706;52.100;5.056;2023-05-11T05:12:25;101432.19;;;12.40;100.00
49813;BME280;35706;52.100;5.056;2023-05-11T05:13:25;101431.22;;;12.41;100.00
49813;BME280;35706;52.100;5.056;2023-05-11T05:14:26;101435.78;;;12.39;100.00
49813;BME280;35706;52.100;5.056;2023-05-11T05:15:26;101438.91;;;12.23;100.00
49813;BME280;35706;52.100;5.056;2023-05-11T05:16:26;101433.78;;;12.21;100.00
49813;BME280;35706;52.100;5.056;2023-05-11T05:17:27;101439.91;;;12.22;100.00
49813;BME280;35706;52.100;5.056;2023-05-11T05:18:27;101429.66;;;12.29;100.00
49813;BME280;35706;52.100;5.056;2023-05-11T05:19:27;101430.53;;;12.39;100.00
49813;BME280;35706;52.100;5.056;2023-05-11T05:20:27;101427.44;;;12.34;100.00
49813;BME280;35706;52.100;5.056;2023-05-11T05:21:28;101432.56;;;12.26;100.00
49813;BME280;35706;52.100;5.056;2023-05-11T05:22:29;101433.28;;;12.28;100.00
49813;BME280;35706;52.100;5.056;2023-05-11T05:23:30;101433.28;;;12.28;100.00
49813;BME280;35706;52.100;5.056;2023-05-11T05:24:31;101433.81;;;12.31;100.00
49813;BME280;35706;52.100;5.056;2023-05-11T05:25:31;101434.53;;;12.33;100.00
49813;BME280;35706;52.100;5.056;2023-05-11T05:26:31;101438.44;;;12.39;100.00
49813;BME280;35706;52.100;5.056;2023-05-11T05:27:32;101442.91;;;12.48;100.00
49813;BME280;35706;52.100;5.056;2023-05-11T05:28:32;101442.91;;;12.48;100.00
49813;BME280;35706;52.100;5.056;2023-05-11T05:29:34;101442.47;;;12.43;100.00